sensor_id;sensor_type;location;lat;lon;timestamp;temperature;humidity
11136;DHT22;5622;50.840;4.948;2022-10-31T00:00:31;14.00;99.90
11136;DHT22;5622;50.840;4.948;2022-10-31T00:02:58;14.00;99.90
11136;DHT22;5622;50.840;4.948;2022-10-31T00:05:25;14.00;99.90
11136;DHT22;5622;50.840;4.948;2022-10-31T00:07:53;14.00;99.90
11136;DHT22;5622;50.840;4.948;2022-10-31T00:10:21;14.10;99.90
11136;DHT22;5622;50.840;4.948;2022-10-31T00:12:48;14.00;99.90
11136;DHT22;5622;50.840;4.948;2022-10-31T00:15:15;14.00;99.90
11136;DHT22;5622;50.840;4.948;2022-10-31T00:17:42;14.10;99.90
11136;DHT22;5622;50.840;4.948;2022-10-31T00:20:09;14.00;99.90
11136;DHT22;5622;50.840;4.948;2022-10-31T00:22:37;14.00;99.90
11136;DHT22;5622;50.840;4.948;2022-10-31T00:25:06;14.00;99.90
11136;DHT22;5622;50.840;4.948;2022-10-31T00:27:33;14.00;99.90
11136;DHT22;5622;50.840;4.948;2022-10-31T00:30:00;14.00;99.90
11136;DHT22;5622;50.840;4.948;2022-10-31T00:32:28;13.90;99.90
11136;DHT22;5622;50.840;4.948;2022-10-31T00:34:56;13.80;99.90
11136;DHT22;5622;50.840;4.948;2022-10-31T00:37:23;13.80;99.90
11136;DHT22;5622;50.840;4.948;2022-10-31T00:39:50;13.80;99.90
11136;DHT22;5622;50.840;4.948;2022-10-31T00:42:19;13.70;99.90
11136;DHT22;5622;50.840;4.948;2022-10-31T00:44:46;13.70;99.90
11136;DHT22;5622;50.840;4.948;2022-10-31T00:47:13;13.70;99.90
11136;DHT22;5622;50.840;4.948;2022-10-31T00:49:40;13.70;99.90
11136;DHT22;5622;50.840;4.948;2022-10-31T00:52:09;13.70;99.90
11136;DHT22;5622;50.840;4.948;2022-10-31T00:54:36;13.70;99.90
11136;DHT22;5622;50.840;4.948;2022-10-31T00:57:03;13.70;99.90
11136;DHT22;5622;50.840;4.948;2022-10-31T00:59:32;13.60;99.90
11136;DHT22;5622;50.840;4.948;2022-10-31T01:01:59;13.60;99.90
11136;DHT22;5622;50.840;4.948;2022-10-31T01:04:26;13.50;99.90
11136;DHT22;5622;50.840;4.948;2022-10-31T01:06:53;13.60;99.90
11136;DHT22;5622;50.840;4.948;2022-10-31T01:09:20;13.50;99.90
11136;DHT22;5622;50.840;4.948;2022-10-31T01:11:47;13.50;99.90
11136;DHT22;5622;50.840;4.948;2022-10-31T01:14:14;13.50;99.90
11136;DHT22;5622;50.840;4.948;2022-10-31T01:16:43;13.60;99.90
11136;DHT22;5622;50.840;4.948;2022-10-31T01:19:10;13.50;99.90
11136;DHT22;5622;50.840;4.948;2022-10-31T01:21:37;13.50;99.90
11136;DHT22;5622;50.840;4.948;2022-10-31T01:24:05;13.50;99.90
11136;DHT22;5622;50.840;4.948;2022-10-31T01:26:33;13.50;99.90
11136;DHT22;5622;50.840;4.948;2022-10-31T01:29:02;13.50;99.90
11136;DHT22;5622;50.840;4.948;2022-10-31T01:31:31;13.50;99.90
11136;DHT22;5622;50.840;4.948;2022-10-31T01:34:00;13.40;99.90
11136;DHT22;5622;50.840;4.948;2022-10-31T01:36:30;13.50;99.90
11136;DHT22;5622;50.840;4.948;2022-10-31T01:38:59;13.40;99.90
11136;DHT22;5622;50.840;4.948;2022-10-31T01:41:28;13.40;99.90
11136;DHT22;5622;50.840;4.948;2022-10-31T01:43:57;13.40;99.90
11136;DHT22;5622;50.840;4.948;2022-10-31T01:46:29;13.40;99.90
11136;DHT22;5622;50.840;4.948;2022-10-31T01:48:58;13.40;99.90
11136;DHT22;5622;50.840;4.948;2022-10-31T01:51:29;13.30;99.90
11136;DHT22;5622;50.840;4.948;2022-10-31T01:54:04;13.40;99.90
11136;DHT22;5622;50.840;4.948;2022-10-31T01:56:32;13.30;99.90
11136;DHT22;5622;50.840;4.948;2022-10-31T01:59:02;13.30;99.90
11136;DHT22;5622;50.840;4.948;2022-10-31T02:01:32;13.30;99.90
11136;DHT22;5622;50.840;4.948;2022-10-31T02:03:59;13.30;99.90
11136;DHT22;5622;50.840;4.948;2022-10-31T02:06:33;13.30;99.90
11136;DHT22;5622;50.840;4.948;2022-10-31T02:09:04;13.30;99.90
11136;DHT22;5622;50.840;4.948;2022-10-31T02:11:33;13.30;99.90
11136;DHT22;5622;50.840;4.948;2022-10-31T02:14:02;13.30;99.90
11136;DHT22;5622;50.840;4.948;2022-10-31T02:16:29;13.30;99.90
11136;DHT22;5622;50.840;4.948;2022-10-31T02:18:56;13.30;99.90
11136;DHT22;5622;50.840;4.948;2022-10-31T02:21:29;13.20;99.90
11136;DHT22;5622;50.840;4.948;2022-10-31T02:24:40;13.20;99.90
11136;DHT22;5622;50.840;4.948;2022-10-31T02:27:19;13.20;99.90
11136;DHT22;5622;50.840;4.948;2022-10-31T02:30:05;13.10;99.90
11136;DHT22;5622;50.840;4.948;2022-10-31T02:32:51;13.10;99.90
11136;DHT22;5622;50.840;4.948;2022-10-31T02:35:29;13.00;99.90
11136;DHT22;5622;50.840;4.948;2022-10-31T02:38:12;12.90;99.90
11136;DHT22;5622;50.840;4.948;2022-10-31T02:40:45;12.90;99.90
11136;DHT22;5622;50.840;4.948;2022-10-31T02:43:19;12.90;99.90
11136;DHT22;5622;50.840;4.948;2022-10-31T02:45:50;12.80;99.90
11136;DHT22;5622;50.840;4.948;2022-10-31T02:48:25;12.80;99.90
11136;DHT22;5622;50.840;4.948;2022-10-31T02:50:56;12.80;99.90
11136;DHT22;5622;50.840;4.948;2022-10-31T02:53:25;12.80;99.90
11136;DHT22;5622;50.840;4.948;2022-10-31T02:56:01;12.80;99.90
11136;DHT22;5622;50.840;4.948;2022-10-31T02:58:32;12.80;99.90
11136;DHT22;5622;50.840;4.948;2022-10-31T03:01:12;12.80;99.90
11136;DHT22;5622;50.840;4.948;2022-10-31T03:03:57;12.80;99.90
11136;DHT22;5622;50.840;4.948;2022-10-31T03:06:32;12.80;99.90
11136;DHT22;5622;50.840;4.948;2022-10-31T03:09:05;12.80;99.90
11136;DHT22;5622;50.840;4.948;2022-10-31T03:11:43;12.80;99.90
11136;DHT22;5622;50.840;4.948;2022-10-31T03:14:14;12.80;99.90
11136;DHT22;5622;50.840;4.948;2022-10-31T03:16:46;12.80;99.90
11136;DHT22;5622;50.840;4.948;2022-10-31T03:19:18;12.80;99.90
11136;DHT22;5622;50.840;4.948;2022-10-31T03:21:49;12.80;99.90
11136;DHT22;5622;50.840;4.948;2022-10-31T03:24:19;12.80;99.90
11136;DHT22;5622;50.840;4.948;2022-10-31T03:26:51;12.80;99.90
11136;DHT22;5622;50.840;4.948;2022-10-31T03:29:23;12.80;99.90
11136;DHT22;5622;50.840;4.948;2022-10-31T03:31:54;12.90;99.90
11136;DHT22;5622;50.840;4.948;2022-10-31T03:34:24;12.90;99.90
11136;DHT22;5622;50.840;4.948;2022-10-31T03:36:54;12.90;99.90
11136;DHT22;5622;50.840;4.948;2022-10-31T03:39:23;12.90;99.90
11136;DHT22;5622;50.840;4.948;2022-10-31T03:41:56;12.90;99.90
11136;DHT22;5622;50.840;4.948;2022-10-31T03:44:24;12.90;99.90
11136;DHT22;5622;50.840;4.948;2022-10-31T03:46:53;12.90;99.90
11136;DHT22;5622;50.840;4.948;2022-10-31T03:49:20;12.90;99.90
11136;DHT22;5622;50.840;4.948;2022-10-31T03:51:54;13.00;99.90
11136;DHT22;5622;50.840;4.948;2022-10-31T03:54:27;13.00;99.90
11136;DHT22;5622;50.840;4.948;2022-10-31T03:57:01;13.00;99.90
11136;DHT22;5622;50.840;4.948;2022-10-31T03:59:34;13.00;99.90
11136;DHT22;5622;50.840;4.948;2022-10-31T04:02:05;13.00;99.90
11136;DHT22;5622;50.840;4.948;2022-10-31T04:04:34;12.90;99.90
11136;DHT22;5622;50.840;4.948;2022-10-31T04:07:04;12.90;99.90
11136;DHT22;5622;50.840;4.948;2022-10-31T04:09:36;12.90;99.90
11136;DHT22;5622;50.840;4.948;2022-10-31T04:12:05;12.90;99.90
11136;DHT22;5622;50.840;4.948;2022-10-31T04:14:35;12.90;99.90
11136;DHT22;5622;50.840;4.948;2022-10-31T04:17:03;12.80;99.90
11136;DHT22;5622;50.840;4.948;2022-10-31T04:19:32;12.80;99.90
11136;DHT22;5622;50.840;4.948;2022-10-31T04:22:00;12.70;99.90
11136;DHT22;5622;50.840;4.948;2022-10-31T04:24:28;12.70;99.90
11136;DHT22;5622;50.840;4.948;2022-10-31T04:26:55;12.70;99.90
11136;DHT22;5622;50.840;4.948;2022-10-31T04:29:23;12.60;99.90
11136;DHT22;5622;50.840;4.948;2022-10-31T04:31:50;12.60;99.90
11136;DHT22;5622;50.840;4.948;2022-10-31T04:34:17;12.60;99.90
11136;DHT22;5622;50.840;4.948;2022-10-31T04:36:44;12.50;99.90
11136;DHT22;5622;50.840;4.948;2022-10-31T04:39:11;12.40;99.90
11136;DHT22;5622;50.840;4.948;2022-10-31T04:41:39;12.40;99.90
11136;DHT22;5622;50.840;4.948;2022-10-31T04:44:06;12.40;99.90
11136;DHT22;5622;50.840;4.948;2022-10-31T04:46:33;12.40;99.90
11136;DHT22;5622;50.840;4.948;2022-10-31T04:49:01;12.30;99.90
11136;DHT22;5622;50.840;4.948;2022-10-31T04:51:28;12.30;99.90
11136;DHT22;5622;50.840;4.948;2022-10-31T04:53:55;12.30;99.90
11136;DHT22;5622;50.840;4.948;2022-10-31T04:56:22;12.20;99.90
11136;DHT22;5622;50.840;4.948;2022-10-31T04:58:50;12.10;99.90
11136;DHT22;5622;50.840;4.948;2022-10-31T05:01:17;12.10;99.90
11136;DHT22;5622;50.840;4.948;2022-10-31T05:03:44;12.10;99.90
11136;DHT22;5622;50.840;4.948;2022-10-31T05:06:11;12.10;99.90
11136;DHT22;5622;50.840;4.948;2022-10-31T05:08:38;12.10;99.90
11136;DHT22;5622;50.840;4.948;2022-10-31T05:11:05;12.10;99.90
11136;DHT22;5622;50.840;4.948;2022-10-31T05:13:32;12.10;99.90
11136;DHT22;5622;50.840;4.948;2022-10-31T05:16:01;12.10;99.90
11136;DHT22;5622;50.840;4.948;2022-10-31T05:18:28;12.10;99.90
11136;DHT22;5622;50.840;4.948;2022-10-31T05:20:55;12.20;99.90
11136;DHT22;5622;50.840;4.948;2022-10-31T05:23:22;12.20;99.90
11136;DHT22;5622;50.840;4.948;2022-10-31T05:25:50;12.20;99.90
11136;DHT22;5622;50.840;4.948;2022-10-31T05:28:17;12.10;99.90
11136;DHT22;5622;50.840;4.948;2022-10-31T05:30:44;12.10;99.90
11136;DHT22;5622;50.840;4.948;2022-10-31T05:33:12;12.10;99.90
11136;DHT22;5622;50.840;4.948;2022-10-31T05:35:39;12.10;99.90
11136;DHT22;5622;50.840;4.948;2022-10-31T05:38:06;12.10;99.90
11136;DHT22;5622;50.840;4.948;2022-10-31T05:40:33;12.20;99.90
11136;DHT22;5622;50.840;4.948;2022-10-31T05:43:00;12.20;99.90
11136;DHT22;5622;50.840;4.948;2022-10-31T05:45:27;12.20;99.90
11136;DHT22;5622;50.840;4.948;2022-10-31T05:47:56;12.20;99.90
11136;DHT22;5622;50.840;4.948;2022-10-31T05:50:27;12.20;99.90
11136;DHT22;5622;50.840;4.948;2022-10-31T05:52:55;12.20;99.90
11136;DHT22;5622;50.840;4.948;2022-10-31T05:55:22;12.20;99.90
11136;DHT22;5622;50.840;4.948;2022-10-31T05:57:51;12.20;99.90
11136;DHT22;5622;50.840;4.948;2022-10-31T06:00:18;12.20;99.90
11136;DHT22;5622;50.840;4.948;2022-10-31T06:02:46;12.20;99.90
11136;DHT22;5622;50.840;4.948;2022-10-31T06:05:13;12.20;99.90
11136;DHT22;5622;50.840;4.948;2022-10-31T06:07:42;12.20;99.90
11136;DHT22;5622;50.840;4.948;2022-10-31T06:10:09;12.20;99.90
11136;DHT22;5622;50.840;4.948;2022-10-31T06:12:36;12.20;99.90
11136;DHT22;5622;50.840;4.948;2022-10-31T06:15:04;12.20;99.90
11136;DHT22;5622;50.840;4.948;2022-10-31T06:17:32;12.20;99.90
11136;DHT22;5622;50.840;4.948;2022-10-31T06:20:00;12.20;99.90
11136;DHT22;5622;50.840;4.948;2022-10-31T06:22:27;12.20;99.90
11136;DHT22;5622;50.840;4.948;2022-10-31T06:24:56;12.20;99.90
11136;DHT22;5622;50.840;4.948;2022-10-31T06:27:23;12.20;99.90
11136;DHT22;5622;50.840;4.948;2022-10-31T06:29:50;12.20;99.90
11136;DHT22;5622;50.840;4.948;2022-10-31T06:32:19;12.20;99.90
11136;DHT22;5622;50.840;4.948;2022-10-31T06:34:46;12.20;99.90
11136;DHT22;5622;50.840;4.948;2022-10-31T06:37:14;12.20;99.90
11136;DHT22;5622;50.840;4.948;2022-10-31T06:39:41;12.20;99.90
11136;DHT22;5622;50.840;4.948;2022-10-31T06:42:10;12.20;99.90
11136;DHT22;5622;50.840;4.948;2022-10-31T06:44:37;12.20;99.90
11136;DHT22;5622;50.840;4.948;2022-10-31T06:47:05;12.20;99.90
11136;DHT22;5622;50.840;4.948;2022-10-31T06:49:33;12.20;99.90
11136;DHT22;5622;50.840;4.948;2022-10-31T06:52:00;12.20;99.90
11136;DHT22;5622;50.840;4.948;2022-10-31T06:54:27;12.20;99.90
11136;DHT22;5622;50.840;4.948;2022-10-31T06:56:54;12.10;99.90
11136;DHT22;5622;50.840;4.948;2022-10-31T06:59:23;12.10;99.90
11136;DHT22;5622;50.840;4.948;2022-10-31T07:01:51;12.00;99.90
11136;DHT22;5622;50.840;4.948;2022-10-31T07:04:18;12.00;99.90
11136;DHT22;5622;50.840;4.948;2022-10-31T07:07:05;12.00;99.90
11136;DHT22;5622;50.840;4.948;2022-10-31T07:09:32;12.00;99.90
11136;DHT22;5622;50.840;4.948;2022-10-31T07:12:00;12.10;99.90
11136;DHT22;5622;50.840;4.948;2022-10-31T07:14:30;12.10;99.90
11136;DHT22;5622;50.840;4.948;2022-10-31T07:17:01;12.10;99.90
11136;DHT22;5622;50.840;4.948;2022-10-31T07:19:28;12.10;99.90
11136;DHT22;5622;50.840;4.948;2022-10-31T07:21:57;12.10;99.90
11136;DHT22;5622;50.840;4.948;2022-10-31T07:24:25;12.10;99.90
11136;DHT22;5622;50.840;4.948;2022-10-31T07:26:52;12.10;99.90
11136;DHT22;5622;50.840;4.948;2022-10-31T07:29:19;12.20;99.90
11136;DHT22;5622;50.840;4.948;2022-10-31T07:31:47;12.20;99.90
11136;DHT22;5622;50.840;4.948;2022-10-31T07:34:15;12.20;99.90
11136;DHT22;5622;50.840;4.948;2022-10-31T07:36:45;12.20;99.90
11136;DHT22;5622;50.840;4.948;2022-10-31T07:39:12;12.20;99.90
11136;DHT22;5622;50.840;4.948;2022-10-31T07:41:40;12.20;99.90
11136;DHT22;5622;50.840;4.948;2022-10-31T07:44:07;12.30;99.90
11136;DHT22;5622;50.840;4.948;2022-10-31T07:46:35;12.40;99.90
11136;DHT22;5622;50.840;4.948;2022-10-31T07:49:04;12.40;99.90
11136;DHT22;5622;50.840;4.948;2022-10-31T07:51:32;12.40;99.90
11136;DHT22;5622;50.840;4.948;2022-10-31T07:54:11;12.50;99.90
11136;DHT22;5622;50.840;4.948;2022-10-31T07:56:41;12.60;99.90
11136;DHT22;5622;50.840;4.948;2022-10-31T07:59:11;12.50;99.90
11136;DHT22;5622;50.840;4.948;2022-10-31T08:01:39;12.60;99.90
11136;DHT22;5622;50.840;4.948;2022-10-31T08:07:44;12.70;99.90
11136;DHT22;5622;50.840;4.948;2022-10-31T08:10:20;12.90;99.90
11136;DHT22;5622;50.840;4.948;2022-10-31T08:12:55;12.90;99.90
11136;DHT22;5622;50.840;4.948;2022-10-31T08:15:23;13.00;99.90
11136;DHT22;5622;50.840;4.948;2022-10-31T08:17:50;13.00;99.90
11136;DHT22;5622;50.840;4.948;2022-10-31T08:20:18;13.10;99.90
11136;DHT22;5622;50.840;4.948;2022-10-31T08:22:55;13.10;99.90
11136;DHT22;5622;50.840;4.948;2022-10-31T08:29:33;13.10;99.90
11136;DHT22;5622;50.840;4.948;2022-10-31T08:32:27;13.20;99.90
11136;DHT22;5622;50.840;4.948;2022-10-31T08:35:17;13.20;99.90
11136;DHT22;5622;50.840;4.948;2022-10-31T08:37:46;13.20;99.90
11136;DHT22;5622;50.840;4.948;2022-10-31T08:40:33;13.30;99.90
11136;DHT22;5622;50.840;4.948;2022-10-31T08:43:03;13.30;99.90
11136;DHT22;5622;50.840;4.948;2022-10-31T08:45:32;13.40;99.90
11136;DHT22;5622;50.840;4.948;2022-10-31T08:48:04;13.40;99.90
11136;DHT22;5622;50.840;4.948;2022-10-31T08:50:33;13.50;99.90
11136;DHT22;5622;50.840;4.948;2022-10-31T08:53:10;13.50;99.90
11136;DHT22;5622;50.840;4.948;2022-10-31T08:55:40;14.20;99.90
11136;DHT22;5622;50.840;4.948;2022-10-31T08:58:10;13.60;99.90
11136;DHT22;5622;50.840;4.948;2022-10-31T09:00:38;13.70;99.90
11136;DHT22;5622;50.840;4.948;2022-10-31T09:03:08;13.80;99.90
11136;DHT22;5622;50.840;4.948;2022-10-31T09:05:35;13.80;99.90
11136;DHT22;5622;50.840;4.948;2022-10-31T09:08:04;13.90;99.90
11136;DHT22;5622;50.840;4.948;2022-10-31T09:10:40;13.80;99.90
11136;DHT22;5622;50.840;4.948;2022-10-31T09:13:10;13.90;99.90
11136;DHT22;5622;50.840;4.948;2022-10-31T09:15:39;13.80;99.90
11136;DHT22;5622;50.840;4.948;2022-10-31T09:18:15;13.90;99.90
11136;DHT22;5622;50.840;4.948;2022-10-31T09:20:44;14.00;99.90
11136;DHT22;5622;50.840;4.948;2022-10-31T09:23:13;14.10;99.90
11136;DHT22;5622;50.840;4.948;2022-10-31T09:29:00;14.00;99.90
11136;DHT22;5622;50.840;4.948;2022-10-31T09:31:45;14.20;99.90
11136;DHT22;5622;50.840;4.948;2022-10-31T09:34:26;14.30;99.90
11136;DHT22;5622;50.840;4.948;2022-10-31T09:37:02;14.30;99.90
11136;DHT22;5622;50.840;4.948;2022-10-31T09:39:29;14.30;99.90
11136;DHT22;5622;50.840;4.948;2022-10-31T09:42:07;14.40;99.90
11136;DHT22;5622;50.840;4.948;2022-10-31T09:44:47;14.40;99.90
11136;DHT22;5622;50.840;4.948;2022-10-31T09:47:22;14.40;99.90
11136;DHT22;5622;50.840;4.948;2022-10-31T09:50:27;14.40;99.90
11136;DHT22;5622;50.840;4.948;2022-10-31T09:53:23;14.50;99.90
11136;DHT22;5622;50.840;4.948;2022-10-31T09:56:30;14.50;99.90
11136;DHT22;5622;50.840;4.948;2022-10-31T09:59:00;14.50;99.90
11136;DHT22;5622;50.840;4.948;2022-10-31T10:01:42;14.50;99.90
11136;DHT22;5622;50.840;4.948;2022-10-31T10:07:33;14.50;99.90
11136;DHT22;5622;50.840;4.948;2022-10-31T10:10:13;14.50;99.90
11136;DHT22;5622;50.840;4.948;2022-10-31T10:12:55;14.50;99.90
11136;DHT22;5622;50.840;4.948;2022-10-31T10:15:40;14.60;99.90
11136;DHT22;5622;50.840;4.948;2022-10-31T10:18:29;14.60;99.90
11136;DHT22;5622;50.840;4.948;2022-10-31T10:21:22;14.60;99.90
11136;DHT22;5622;50.840;4.948;2022-10-31T10:24:05;14.60;99.90
11136;DHT22;5622;50.840;4.948;2022-10-31T10:26:41;14.70;99.90
11136;DHT22;5622;50.840;4.948;2022-10-31T10:29:23;14.70;99.90
11136;DHT22;5622;50.840;4.948;2022-10-31T10:31:53;14.80;99.90
11136;DHT22;5622;50.840;4.948;2022-10-31T10:34:41;14.80;99.90
11136;DHT22;5622;50.840;4.948;2022-10-31T10:37:24;14.80;99.90
11136;DHT22;5622;50.840;4.948;2022-10-31T10:39:56;14.90;99.90
11136;DHT22;5622;50.840;4.948;2022-10-31T10:42:29;14.90;99.90
11136;DHT22;5622;50.840;4.948;2022-10-31T10:45:38;15.00;99.90
11136;DHT22;5622;50.840;4.948;2022-10-31T10:48:30;15.00;99.90
11136;DHT22;5622;50.840;4.948;2022-10-31T10:51:01;15.10;99.90
11136;DHT22;5622;50.840;4.948;2022-10-31T10:54:04;15.10;99.90
11136;DHT22;5622;50.840;4.948;2022-10-31T10:56:55;15.10;99.90
11136;DHT22;5622;50.840;4.948;2022-10-31T10:59:38;15.10;99.90
11136;DHT22;5622;50.840;4.948;2022-10-31T11:02:16;15.20;99.90
11136;DHT22;5622;50.840;4.948;2022-10-31T11:04:45;15.20;99.90
11136;DHT22;5622;50.840;4.948;2022-10-31T11:07:16;15.30;99.90
11136;DHT22;5622;50.840;4.948;2022-10-31T11:09:44;15.30;99.90
11136;DHT22;5622;50.840;4.948;2022-10-31T11:12:22;15.30;99.90
11136;DHT22;5622;50.840;4.948;2022-10-31T11:15:02;15.40;99.90
11136;DHT22;5622;50.840;4.948;2022-10-31T11:17:39;15.40;99.90
11136;DHT22;5622;50.840;4.948;2022-10-31T11:20:27;15.60;99.90
11136;DHT22;5622;50.840;4.948;2022-10-31T11:23:18;15.50;99.90
11136;DHT22;5622;50.840;4.948;2022-10-31T11:25:49;15.50;99.90
11136;DHT22;5622;50.840;4.948;2022-10-31T11:28:17;15.50;99.90
11136;DHT22;5622;50.840;4.948;2022-10-31T11:30:47;15.60;99.90
11136;DHT22;5622;50.840;4.948;2022-10-31T11:33:18;15.60;99.90
11136;DHT22;5622;50.840;4.948;2022-10-31T11:35:47;15.60;99.90
11136;DHT22;5622;50.840;4.948;2022-10-31T11:38:19;15.70;99.90
11136;DHT22;5622;50.840;4.948;2022-10-31T11:41:01;15.80;99.90
11136;DHT22;5622;50.840;4.948;2022-10-31T11:43:36;15.80;99.90
11136;DHT22;5622;50.840;4.948;2022-10-31T11:46:09;15.90;99.90
11136;DHT22;5622;50.840;4.948;2022-10-31T11:48:50;15.90;99.90
11136;DHT22;5622;50.840;4.948;2022-10-31T11:51:38;16.00;99.90
11136;DHT22;5622;50.840;4.948;2022-10-31T11:54:21;16.00;99.90
11136;DHT22;5622;50.840;4.948;2022-10-31T11:56:49;16.00;99.90
11136;DHT22;5622;50.840;4.948;2022-10-31T11:59:29;16.10;99.90
11136;DHT22;5622;50.840;4.948;2022-10-31T12:02:18;16.10;99.90
11136;DHT22;5622;50.840;4.948;2022-10-31T12:04:51;16.10;99.90
11136;DHT22;5622;50.840;4.948;2022-10-31T12:07:19;16.20;99.90
11136;DHT22;5622;50.840;4.948;2022-10-31T12:09:48;16.20;99.90
11136;DHT22;5622;50.840;4.948;2022-10-31T12:15:30;16.30;99.90
11136;DHT22;5622;50.840;4.948;2022-10-31T12:21:16;16.30;99.90
11136;DHT22;5622;50.840;4.948;2022-10-31T12:23:53;16.40;99.90
11136;DHT22;5622;50.840;4.948;2022-10-31T12:26:32;16.40;99.90
11136;DHT22;5622;50.840;4.948;2022-10-31T12:29:14;16.40;99.90
11136;DHT22;5622;50.840;4.948;2022-10-31T12:31:52;16.40;99.90
11136;DHT22;5622;50.840;4.948;2022-10-31T12:34:40;16.40;99.90
11136;DHT22;5622;50.840;4.948;2022-10-31T12:37:19;16.40;99.90
11136;DHT22;5622;50.840;4.948;2022-10-31T12:39:58;16.50;99.90
11136;DHT22;5622;50.840;4.948;2022-10-31T12:42:46;16.50;99.90
11136;DHT22;5622;50.840;4.948;2022-10-31T12:45:35;16.50;99.90
11136;DHT22;5622;50.840;4.948;2022-10-31T12:48:24;16.50;99.90
11136;DHT22;5622;50.840;4.948;2022-10-31T12:51:24;16.50;99.90
11136;DHT22;5622;50.840;4.948;2022-10-31T12:54:16;16.50;99.90
11136;DHT22;5622;50.840;4.948;2022-10-31T12:56:53;16.50;99.90
11136;DHT22;5622;50.840;4.948;2022-10-31T12:59:29;16.50;99.90
11136;DHT22;5622;50.840;4.948;2022-10-31T13:02:02;16.50;99.90
11136;DHT22;5622;50.840;4.948;2022-10-31T13:04:40;16.50;99.90
11136;DHT22;5622;50.840;4.948;2022-10-31T13:07:12;16.50;99.90
11136;DHT22;5622;50.840;4.948;2022-10-31T13:09:45;16.50;99.90
11136;DHT22;5622;50.840;4.948;2022-10-31T13:12:17;16.50;99.90
11136;DHT22;5622;50.840;4.948;2022-10-31T13:14:49;16.50;99.90
11136;DHT22;5622;50.840;4.948;2022-10-31T13:17:24;16.50;99.90
11136;DHT22;5622;50.840;4.948;2022-10-31T13:19:58;16.50;99.90
11136;DHT22;5622;50.840;4.948;2022-10-31T13:22:30;16.50;99.90
11136;DHT22;5622;50.840;4.948;2022-10-31T13:25:25;16.50;99.90
11136;DHT22;5622;50.840;4.948;2022-10-31T13:27:57;16.50;99.90
11136;DHT22;5622;50.840;4.948;2022-10-31T13:30:28;16.50;99.90
11136;DHT22;5622;50.840;4.948;2022-10-31T13:33:00;16.60;99.90
11136;DHT22;5622;50.840;4.948;2022-10-31T13:35:33;16.50;99.90
11136;DHT22;5622;50.840;4.948;2022-10-31T13:38:11;16.60;99.90
11136;DHT22;5622;50.840;4.948;2022-10-31T13:40:47;16.60;99.90
11136;DHT22;5622;50.840;4.948;2022-10-31T13:43:43;16.60;99.90
11136;DHT22;5622;50.840;4.948;2022-10-31T13:46:39;17.30;99.90
11136;DHT22;5622;50.840;4.948;2022-10-31T13:49:25;16.70;99.90
11136;DHT22;5622;50.840;4.948;2022-10-31T13:51:53;16.60;99.90
11136;DHT22;5622;50.840;4.948;2022-10-31T13:54:22;16.70;99.90
11136;DHT22;5622;50.840;4.948;2022-10-31T13:57:31;16.70;99.90
11136;DHT22;5622;50.840;4.948;2022-10-31T14:00:25;16.70;99.90
11136;DHT22;5622;50.840;4.948;2022-10-31T14:03:30;16.70;99.90
11136;DHT22;5622;50.840;4.948;2022-10-31T14:06:18;16.70;99.90
11136;DHT22;5622;50.840;4.948;2022-10-31T14:09:14;16.80;99.90
11136;DHT22;5622;50.840;4.948;2022-10-31T14:11:46;16.70;99.90
11136;DHT22;5622;50.840;4.948;2022-10-31T14:14:29;16.70;99.90
11136;DHT22;5622;50.840;4.948;2022-10-31T14:17:31;16.80;99.90
11136;DHT22;5622;50.840;4.948;2022-10-31T14:20:58;16.80;99.90
11136;DHT22;5622;50.840;4.948;2022-10-31T14:23:54;16.80;99.90
11136;DHT22;5622;50.840;4.948;2022-10-31T14:26:53;16.70;99.90
11136;DHT22;5622;50.840;4.948;2022-10-31T14:29:39;16.80;99.90
11136;DHT22;5622;50.840;4.948;2022-10-31T14:32:21;16.90;99.90
11136;DHT22;5622;50.840;4.948;2022-10-31T14:34:53;16.80;99.90
11136;DHT22;5622;50.840;4.948;2022-10-31T14:48:04;17.20;99.90
11136;DHT22;5622;50.840;4.948;2022-10-31T14:50:59;17.10;99.90
11136;DHT22;5622;50.840;4.948;2022-10-31T14:54:15;17.10;99.90
11136;DHT22;5622;50.840;4.948;2022-10-31T15:01:59;17.10;99.90
11136;DHT22;5622;50.840;4.948;2022-10-31T15:22:13;17.00;99.90
11136;DHT22;5622;50.840;4.948;2022-10-31T15:24:48;17.10;99.90
11136;DHT22;5622;50.840;4.948;2022-10-31T15:27:32;17.10;99.90
11136;DHT22;5622;50.840;4.948;2022-10-31T15:33:40;17.00;99.90
11136;DHT22;5622;50.840;4.948;2022-10-31T15:36:26;16.80;99.90
11136;DHT22;5622;50.840;4.948;2022-10-31T15:39:10;16.90;99.90
11136;DHT22;5622;50.840;4.948;2022-10-31T15:41:52;16.90;99.90
11136;DHT22;5622;50.840;4.948;2022-10-31T15:44:42;16.90;99.90
11136;DHT22;5622;50.840;4.948;2022-10-31T15:47:32;17.00;99.90
11136;DHT22;5622;50.840;4.948;2022-10-31T15:50:37;16.70;99.90
11136;DHT22;5622;50.840;4.948;2022-10-31T15:53:29;16.70;99.90
11136;DHT22;5622;50.840;4.948;2022-10-31T15:59:50;16.50;99.90
11136;DHT22;5622;50.840;4.948;2022-10-31T16:02:41;16.40;99.90
11136;DHT22;5622;50.840;4.948;2022-10-31T16:08:46;16.30;99.90
11136;DHT22;5622;50.840;4.948;2022-10-31T16:11:38;16.20;99.90
11136;DHT22;5622;50.840;4.948;2022-10-31T16:14:22;16.00;99.90
11136;DHT22;5622;50.840;4.948;2022-10-31T16:17:01;16.00;99.90
11136;DHT22;5622;50.840;4.948;2022-10-31T16:19:31;15.90;99.90
11136;DHT22;5622;50.840;4.948;2022-10-31T16:22:04;15.80;99.90
11136;DHT22;5622;50.840;4.948;2022-10-31T16:24:44;15.70;99.90
11136;DHT22;5622;50.840;4.948;2022-10-31T16:27:22;15.70;99.90
11136;DHT22;5622;50.840;4.948;2022-10-31T16:30:03;15.60;99.90
11136;DHT22;5622;50.840;4.948;2022-10-31T16:33:21;15.50;99.90
11136;DHT22;5622;50.840;4.948;2022-10-31T16:35:50;15.40;99.90
11136;DHT22;5622;50.840;4.948;2022-10-31T16:38:17;15.30;99.90
11136;DHT22;5622;50.840;4.948;2022-10-31T16:40:45;15.30;99.90
11136;DHT22;5622;50.840;4.948;2022-10-31T16:43:23;15.20;99.90
11136;DHT22;5622;50.840;4.948;2022-10-31T16:46:04;15.10;99.90
11136;DHT22;5622;50.840;4.948;2022-10-31T16:48:33;15.10;99.90
11136;DHT22;5622;50.840;4.948;2022-10-31T16:51:01;15.10;99.90
11136;DHT22;5622;50.840;4.948;2022-10-31T16:53:28;15.00;99.90
11136;DHT22;5622;50.840;4.948;2022-10-31T16:55:57;15.00;99.90
11136;DHT22;5622;50.840;4.948;2022-10-31T16:58:28;15.00;99.90
11136;DHT22;5622;50.840;4.948;2022-10-31T17:00:57;14.90;99.90
11136;DHT22;5622;50.840;4.948;2022-10-31T17:03:25;14.80;99.90
11136;DHT22;5622;50.840;4.948;2022-10-31T17:05:54;14.90;99.90
11136;DHT22;5622;50.840;4.948;2022-10-31T17:08:21;14.70;99.90
11136;DHT22;5622;50.840;4.948;2022-10-31T17:10:51;14.70;99.90
11136;DHT22;5622;50.840;4.948;2022-10-31T17:13:20;14.70;99.90
11136;DHT22;5622;50.840;4.948;2022-10-31T17:16:03;14.70;99.90
11136;DHT22;5622;50.840;4.948;2022-10-31T17:18:47;14.60;99.90
11136;DHT22;5622;50.840;4.948;2022-10-31T17:21:18;14.60;99.90
11136;DHT22;5622;50.840;4.948;2022-10-31T17:23:47;14.60;99.90
11136;DHT22;5622;50.840;4.948;2022-10-31T17:26:15;14.50;99.90
11136;DHT22;5622;50.840;4.948;2022-10-31T17:28:42;14.50;99.90
11136;DHT22;5622;50.840;4.948;2022-10-31T17:31:19;14.50;99.90
11136;DHT22;5622;50.840;4.948;2022-10-31T17:33:47;14.50;99.90